sensor_id;sensor_type;location;lat;lon;timestamp;P1;durP1;ratioP1;P2;durP2;ratioP2
73675;SDS011;61975;48.660;10.164;2023-11-21T00:01:57;5.70;;;1.10;;
73675;SDS011;61975;48.660;10.164;2023-11-21T00:04:23;5.25;;;1.08;;
73675;SDS011;61975;48.660;10.164;2023-11-21T00:06:48;3.23;;;1.30;;
73675;SDS011;61975;48.660;10.164;2023-11-21T00:09:14;7.97;;;1.35;;
73675;SDS011;61975;48.660;10.164;2023-11-21T00:11:43;4.85;;;1.05;;
73675;SDS011;61975;48.660;10.164;2023-11-21T00:14:10;5.30;;;1.27;;
73675;SDS011;61975;48.660;10.164;2023-11-21T00:16:36;5.07;;;1.25;;
73675;SDS011;61975;48.660;10.164;2023-11-21T00:19:01;6.63;;;1.07;;
73675;SDS011;61975;48.660;10.164;2023-11-21T00:21:27;5.17;;;1.40;;
73675;SDS011;61975;48.660;10.164;2023-11-21T00:23:52;3.40;;;1.10;;
73675;SDS011;61975;48.660;10.164;2023-11-21T00:26:17;3.07;;;1.10;;
73675;SDS011;61975;48.660;10.164;2023-11-21T00:28:43;8.05;;;1.40;;
73675;SDS011;61975;48.660;10.164;2023-11-21T00:31:08;4.70;;;1.23;;
73675;SDS011;61975;48.660;10.164;2023-11-21T00:33:33;6.80;;;1.23;;
73675;SDS011;61975;48.660;10.164;2023-11-21T00:36:02;6.55;;;1.38;;
73675;SDS011;61975;48.660;10.164;2023-11-21T00:38:27;6.70;;;1.60;;
73675;SDS011;61975;48.660;10.164;2023-11-21T00:40:53;3.73;;;1.27;;
73675;SDS011;61975;48.660;10.164;2023-11-21T00:43:21;4.55;;;1.58;;
73675;SDS011;61975;48.660;10.164;2023-11-21T00:45:49;6.03;;;1.73;;
73675;SDS011;61975;48.660;10.164;2023-11-21T00:48:15;7.43;;;1.37;;
73675;SDS011;61975;48.660;10.164;2023-11-21T00:50:40;7.10;;;1.50;;
73675;SDS011;61975;48.660;10.164;2023-11-21T00:53:06;5.20;;;1.60;;
73675;SDS011;61975;48.660;10.164;2023-11-21T00:55:32;6.28;;;1.55;;
73675;SDS011;61975;48.660;10.164;2023-11-21T00:57:58;5.80;;;1.47;;
73675;SDS011;61975;48.660;10.164;2023-11-21T01:00:23;5.63;;;1.25;;
73675;SDS011;61975;48.660;10.164;2023-11-21T01:02:49;4.80;;;1.33;;
73675;SDS011;61975;48.660;10.164;2023-11-21T01:05:14;4.30;;;1.47;;
73675;SDS011;61975;48.660;10.164;2023-11-21T01:07:39;5.05;;;1.45;;
73675;SDS011;61975;48.660;10.164;2023-11-21T01:10:05;5.53;;;1.33;;
73675;SDS011;61975;48.660;10.164;2023-11-21T01:12:32;10.32;;;1.63;;
73675;SDS011;61975;48.660;10.164;2023-11-21T01:15:02;4.70;;;1.27;;
73675;SDS011;61975;48.660;10.164;2023-11-21T01:17:29;7.10;;;1.17;;
73675;SDS011;61975;48.660;10.164;2023-11-21T01:19:54;4.70;;;1.20;;
73675;SDS011;61975;48.660;10.164;2023-11-21T01:22:22;5.72;;;1.30;;
73675;SDS011;61975;48.660;10.164;2023-11-21T01:24:51;5.38;;;1.30;;
73675;SDS011;61975;48.660;10.164;2023-11-21T01:27:17;4.25;;;1.20;;
73675;SDS011;61975;48.660;10.164;2023-11-21T01:29:43;4.68;;;1.15;;
73675;SDS011;61975;48.660;10.164;2023-11-21T01:32:09;5.00;;;1.20;;
73675;SDS011;61975;48.660;10.164;2023-11-21T01:34:34;5.70;;;1.67;;
73675;SDS011;61975;48.660;10.164;2023-11-21T01:37:00;8.85;;;1.50;;
73675;SDS011;61975;48.660;10.164;2023-11-21T01:39:26;6.95;;;1.30;;
73675;SDS011;61975;48.660;10.164;2023-11-21T01:41:51;4.35;;;1.33;;
73675;SDS011;61975;48.660;10.164;2023-11-21T01:44:17;4.10;;;1.50;;
73675;SDS011;61975;48.660;10.164;2023-11-21T01:46:44;5.95;;;1.20;;
73675;SDS011;61975;48.660;10.164;2023-11-21T01:49:10;4.40;;;1.23;;
73675;SDS011;61975;48.660;10.164;2023-11-21T01:51:38;5.00;;;1.23;;
73675;SDS011;61975;48.660;10.164;2023-11-21T01:54:05;3.78;;;1.45;;
73675;SDS011;61975;48.660;10.164;2023-11-21T01:56:31;6.22;;;1.38;;
73675;SDS011;61975;48.660;10.164;2023-11-21T01:58:57;5.67;;;1.43;;
73675;SDS011;61975;48.660;10.164;2023-11-21T02:01:23;6.63;;;1.48;;
73675;SDS011;61975;48.660;10.164;2023-11-21T02:03:48;4.30;;;1.30;;
73675;SDS011;61975;48.660;10.164;2023-11-21T02:06:13;5.03;;;1.20;;
73675;SDS011;61975;48.660;10.164;2023-11-21T02:08:39;6.77;;;1.40;;
73675;SDS011;61975;48.660;10.164;2023-11-21T02:11:04;4.95;;;1.35;;
73675;SDS011;61975;48.660;10.164;2023-11-21T02:13:30;4.10;;;1.37;;
73675;SDS011;61975;48.660;10.164;2023-11-21T02:15:56;5.82;;;1.35;;
73675;SDS011;61975;48.660;10.164;2023-11-21T02:18:23;4.78;;;1.42;;
73675;SDS011;61975;48.660;10.164;2023-11-21T02:20:48;4.40;;;1.20;;
73675;SDS011;61975;48.660;10.164;2023-11-21T02:23:14;6.35;;;1.38;;
73675;SDS011;61975;48.660;10.164;2023-11-21T02:25:39;6.60;;;1.60;;
73675;SDS011;61975;48.660;10.164;2023-11-21T02:28:07;6.47;;;1.30;;
73675;SDS011;61975;48.660;10.164;2023-11-21T02:30:33;3.83;;;1.67;;
73675;SDS011;61975;48.660;10.164;2023-11-21T02:32:58;4.27;;;1.50;;
73675;SDS011;61975;48.660;10.164;2023-11-21T02:35:25;5.30;;;1.45;;
73675;SDS011;61975;48.660;10.164;2023-11-21T02:37:53;5.18;;;1.50;;
73675;SDS011;61975;48.660;10.164;2023-11-21T02:40:19;4.00;;;1.38;;
73675;SDS011;61975;48.660;10.164;2023-11-21T02:42:50;5.07;;;1.20;;
73675;SDS011;61975;48.660;10.164;2023-11-21T02:45:16;5.18;;;1.42;;
73675;SDS011;61975;48.660;10.164;2023-11-21T02:47:42;4.03;;;1.48;;
73675;SDS011;61975;48.660;10.164;2023-11-21T02:50:08;3.72;;;1.40;;
73675;SDS011;61975;48.660;10.164;2023-11-21T02:52:34;5.43;;;1.40;;
73675;SDS011;61975;48.660;10.164;2023-11-21T02:55:01;5.45;;;1.50;;
73675;SDS011;61975;48.660;10.164;2023-11-21T02:57:27;5.00;;;1.48;;
73675;SDS011;61975;48.660;10.164;2023-11-21T02:59:52;4.50;;;1.30;;
73675;SDS011;61975;48.660;10.164;2023-11-21T03:02:18;4.53;;;1.30;;
73675;SDS011;61975;48.660;10.164;2023-11-21T03:04:43;6.37;;;1.47;;
73675;SDS011;61975;48.660;10.164;2023-11-21T03:07:09;5.13;;;1.40;;
73675;SDS011;61975;48.660;10.164;2023-11-21T03:09:35;6.03;;;1.63;;
73675;SDS011;61975;48.660;10.164;2023-11-21T03:12:03;4.45;;;1.33;;
73675;SDS011;61975;48.660;10.164;2023-11-21T03:14:29;3.80;;;0.95;;
73675;SDS011;61975;48.660;10.164;2023-11-21T03:16:55;6.70;;;1.33;;
73675;SDS011;61975;48.660;10.164;2023-11-21T03:19:23;5.07;;;1.70;;
73675;SDS011;61975;48.660;10.164;2023-11-21T03:21:48;3.77;;;1.23;;
73675;SDS011;61975;48.660;10.164;2023-11-21T03:24:14;4.65;;;2.05;;
73675;SDS011;61975;48.660;10.164;2023-11-21T03:26:44;8.18;;;1.60;;
73675;SDS011;61975;48.660;10.164;2023-11-21T03:29:10;5.68;;;1.60;;
73675;SDS011;61975;48.660;10.164;2023-11-21T03:31:35;6.63;;;1.53;;
73675;SDS011;61975;48.660;10.164;2023-11-21T03:34:01;7.10;;;1.50;;
73675;SDS011;61975;48.660;10.164;2023-11-21T03:36:26;5.17;;;1.50;;
73675;SDS011;61975;48.660;10.164;2023-11-21T03:38:52;6.63;;;1.67;;
73675;SDS011;61975;48.660;10.164;2023-11-21T03:41:17;7.60;;;1.50;;
73675;SDS011;61975;48.660;10.164;2023-11-21T03:43:42;4.30;;;1.20;;
73675;SDS011;61975;48.660;10.164;2023-11-21T03:46:08;6.82;;;1.50;;
73675;SDS011;61975;48.660;10.164;2023-11-21T03:48:33;8.10;;;1.60;;
73675;SDS011;61975;48.660;10.164;2023-11-21T03:50:58;4.53;;;1.40;;
73675;SDS011;61975;48.660;10.164;2023-11-21T03:53:24;5.13;;;1.37;;
73675;SDS011;61975;48.660;10.164;2023-11-21T03:55:49;5.77;;;1.57;;
73675;SDS011;61975;48.660;10.164;2023-11-21T03:58:15;5.93;;;1.47;;
73675;SDS011;61975;48.660;10.164;2023-11-21T04:00:40;7.55;;;1.52;;
73675;SDS011;61975;48.660;10.164;2023-11-21T04:03:05;4.13;;;1.50;;
73675;SDS011;61975;48.660;10.164;2023-11-21T04:05:31;4.13;;;1.30;;
73675;SDS011;61975;48.660;10.164;2023-11-21T04:07:56;4.23;;;1.60;;
73675;SDS011;61975;48.660;10.164;2023-11-21T04:10:22;5.30;;;1.40;;
73675;SDS011;61975;48.660;10.164;2023-11-21T04:12:47;5.50;;;1.40;;
73675;SDS011;61975;48.660;10.164;2023-11-21T04:15:13;4.47;;;1.45;;
73675;SDS011;61975;48.660;10.164;2023-11-21T04:17:39;4.57;;;1.27;;
73675;SDS011;61975;48.660;10.164;2023-11-21T04:20:06;6.22;;;1.55;;
73675;SDS011;61975;48.660;10.164;2023-11-21T04:22:35;5.13;;;1.00;;
73675;SDS011;61975;48.660;10.164;2023-11-21T04:25:01;4.22;;;1.30;;
73675;SDS011;61975;48.660;10.164;2023-11-21T04:27:27;3.63;;;1.17;;
73675;SDS011;61975;48.660;10.164;2023-11-21T04:29:55;3.88;;;0.90;;
73675;SDS011;61975;48.660;10.164;2023-11-21T04:32:21;3.97;;;1.23;;
73675;SDS011;61975;48.660;10.164;2023-11-21T04:34:46;5.45;;;1.20;;
73675;SDS011;61975;48.660;10.164;2023-11-21T04:37:11;5.40;;;1.10;;
73675;SDS011;61975;48.660;10.164;2023-11-21T04:39:37;5.70;;;1.23;;
73675;SDS011;61975;48.660;10.164;2023-11-21T04:42:02;4.97;;;1.20;;
73675;SDS011;61975;48.660;10.164;2023-11-21T04:44:28;5.60;;;1.13;;
73675;SDS011;61975;48.660;10.164;2023-11-21T04:46:53;3.93;;;1.30;;
73675;SDS011;61975;48.660;10.164;2023-11-21T04:49:19;6.00;;;1.10;;
73675;SDS011;61975;48.660;10.164;2023-11-21T04:51:44;9.50;;;1.70;;
73675;SDS011;61975;48.660;10.164;2023-11-21T04:54:09;6.23;;;1.10;;
73675;SDS011;61975;48.660;10.164;2023-11-21T04:56:35;6.25;;;1.30;;
73675;SDS011;61975;48.660;10.164;2023-11-21T04:59:00;3.37;;;1.00;;
73675;SDS011;61975;48.660;10.164;2023-11-21T05:01:26;5.80;;;1.23;;
73675;SDS011;61975;48.660;10.164;2023-11-21T05:03:51;5.30;;;1.50;;
73675;SDS011;61975;48.660;10.164;2023-11-21T05:06:17;6.00;;;1.42;;
73675;SDS011;61975;48.660;10.164;2023-11-21T05:08:42;3.37;;;1.20;;
73675;SDS011;61975;48.660;10.164;2023-11-21T05:11:08;5.47;;;1.37;;
73675;SDS011;61975;48.660;10.164;2023-11-21T05:13:35;6.75;;;1.27;;
73675;SDS011;61975;48.660;10.164;2023-11-21T05:16:01;3.67;;;1.00;;
73675;SDS011;61975;48.660;10.164;2023-11-21T05:18:29;4.07;;;0.90;;
73675;SDS011;61975;48.660;10.164;2023-11-21T05:20:55;5.55;;;1.08;;
73675;SDS011;61975;48.660;10.164;2023-11-21T05:23:21;5.90;;;1.10;;
73675;SDS011;61975;48.660;10.164;2023-11-21T05:25:46;5.10;;;0.90;;
73675;SDS011;61975;48.660;10.164;2023-11-21T05:28:12;4.57;;;1.20;;
73675;SDS011;61975;48.660;10.164;2023-11-21T05:30:37;5.70;;;1.27;;
73675;SDS011;61975;48.660;10.164;2023-11-21T05:33:05;5.72;;;1.10;;
73675;SDS011;61975;48.660;10.164;2023-11-21T05:35:31;4.57;;;1.30;;
73675;SDS011;61975;48.660;10.164;2023-11-21T05:37:56;4.47;;;1.10;;
73675;SDS011;61975;48.660;10.164;2023-11-21T05:40:22;5.23;;;1.30;;
73675;SDS011;61975;48.660;10.164;2023-11-21T05:42:47;4.43;;;1.10;;
73675;SDS011;61975;48.660;10.164;2023-11-21T05:45:13;6.63;;;1.10;;
73675;SDS011;61975;48.660;10.164;2023-11-21T05:47:42;3.42;;;1.10;;
73675;SDS011;61975;48.660;10.164;2023-11-21T05:50:08;5.60;;;1.20;;
73675;SDS011;61975;48.660;10.164;2023-11-21T05:52:37;5.32;;;1.45;;
73675;SDS011;61975;48.660;10.164;2023-11-21T05:55:04;3.72;;;1.20;;
73675;SDS011;61975;48.660;10.164;2023-11-21T05:57:35;4.55;;;1.10;;
73675;SDS011;61975;48.660;10.164;2023-11-21T06:00:05;3.15;;;0.93;;
73675;SDS011;61975;48.660;10.164;2023-11-21T06:02:43;3.37;;;0.97;;
73675;SDS011;61975;48.660;10.164;2023-11-21T06:05:08;4.45;;;1.05;;
73675;SDS011;61975;48.660;10.164;2023-11-21T06:07:34;3.53;;;0.90;;
73675;SDS011;61975;48.660;10.164;2023-11-21T06:10:01;4.63;;;1.20;;
73675;SDS011;61975;48.660;10.164;2023-11-21T06:12:32;6.75;;;1.33;;
73675;SDS011;61975;48.660;10.164;2023-11-21T06:15:01;4.22;;;1.23;;
73675;SDS011;61975;48.660;10.164;2023-11-21T06:17:33;3.60;;;1.30;;
73675;SDS011;61975;48.660;10.164;2023-11-21T06:20:01;5.10;;;1.17;;
73675;SDS011;61975;48.660;10.164;2023-11-21T06:22:29;4.95;;;1.17;;
73675;SDS011;61975;48.660;10.164;2023-11-21T06:24:55;2.72;;;0.90;;
73675;SDS011;61975;48.660;10.164;2023-11-21T06:27:21;3.47;;;0.90;;
73675;SDS011;61975;48.660;10.164;2023-11-21T06:29:46;4.60;;;1.10;;
73675;SDS011;61975;48.660;10.164;2023-11-21T06:32:12;5.47;;;1.40;;
73675;SDS011;61975;48.660;10.164;2023-11-21T06:34:37;3.65;;;0.88;;
73675;SDS011;61975;48.660;10.164;2023-11-21T06:37:03;4.90;;;1.47;;
73675;SDS011;61975;48.660;10.164;2023-11-21T06:39:28;3.92;;;1.30;;
73675;SDS011;61975;48.660;10.164;2023-11-21T06:41:54;3.07;;;0.70;;
73675;SDS011;61975;48.660;10.164;2023-11-21T06:44:19;6.03;;;1.00;;
73675;SDS011;61975;48.660;10.164;2023-11-21T06:46:45;3.90;;;0.90;;
73675;SDS011;61975;48.660;10.164;2023-11-21T06:49:10;4.07;;;1.10;;
73675;SDS011;61975;48.660;10.164;2023-11-21T06:51:36;5.45;;;1.83;;
73675;SDS011;61975;48.660;10.164;2023-11-21T06:54:01;6.83;;;2.17;;
73675;SDS011;61975;48.660;10.164;2023-11-21T06:56:26;9.53;;;1.70;;
73675;SDS011;61975;48.660;10.164;2023-11-21T06:58:52;5.27;;;1.57;;
73675;SDS011;61975;48.660;10.164;2023-11-21T07:01:19;3.80;;;1.17;;
73675;SDS011;61975;48.660;10.164;2023-11-21T07:03:44;4.73;;;1.30;;
73675;SDS011;61975;48.660;10.164;2023-11-21T07:06:10;3.97;;;1.20;;
73675;SDS011;61975;48.660;10.164;2023-11-21T07:08:36;6.47;;;2.00;;
73675;SDS011;61975;48.660;10.164;2023-11-21T07:11:02;12.60;;;3.60;;
73675;SDS011;61975;48.660;10.164;2023-11-21T07:13:28;8.57;;;3.25;;
73675;SDS011;61975;48.660;10.164;2023-11-21T07:15:53;6.53;;;2.17;;
73675;SDS011;61975;48.660;10.164;2023-11-21T07:18:19;4.50;;;1.63;;
73675;SDS011;61975;48.660;10.164;2023-11-21T07:20:44;5.70;;;1.67;;
73675;SDS011;61975;48.660;10.164;2023-11-21T07:23:10;7.40;;;2.23;;
73675;SDS011;61975;48.660;10.164;2023-11-21T07:25:35;4.83;;;2.37;;
73675;SDS011;61975;48.660;10.164;2023-11-21T07:28:01;6.22;;;2.28;;
73675;SDS011;61975;48.660;10.164;2023-11-21T07:30:26;4.87;;;1.80;;
73675;SDS011;61975;48.660;10.164;2023-11-21T07:32:52;5.83;;;1.63;;
73675;SDS011;61975;48.660;10.164;2023-11-21T07:35:17;4.40;;;1.35;;
73675;SDS011;61975;48.660;10.164;2023-11-21T07:37:43;4.90;;;1.13;;
73675;SDS011;61975;48.660;10.164;2023-11-21T07:40:08;3.47;;;1.10;;
73675;SDS011;61975;48.660;10.164;2023-11-21T07:42:36;3.42;;;1.15;;
73675;SDS011;61975;48.660;10.164;2023-11-21T07:45:02;4.03;;;1.30;;
73675;SDS011;61975;48.660;10.164;2023-11-21T07:47:28;3.95;;;1.08;;
73675;SDS011;61975;48.660;10.164;2023-11-21T07:49:54;6.90;;;1.80;;
73675;SDS011;61975;48.660;10.164;2023-11-21T07:52:21;3.65;;;1.55;;
73675;SDS011;61975;48.660;10.164;2023-11-21T07:54:46;3.78;;;1.60;;
73675;SDS011;61975;48.660;10.164;2023-11-21T07:57:12;4.70;;;2.00;;
73675;SDS011;61975;48.660;10.164;2023-11-21T07:59:38;6.45;;;2.30;;
73675;SDS011;61975;48.660;10.164;2023-11-21T08:02:05;5.18;;;1.77;;
73675;SDS011;61975;48.660;10.164;2023-11-21T08:04:32;5.30;;;1.90;;
73675;SDS011;61975;48.660;10.164;2023-11-21T08:06:57;6.33;;;2.00;;
73675;SDS011;61975;48.660;10.164;2023-11-21T08:09:22;5.03;;;2.00;;
73675;SDS011;61975;48.660;10.164;2023-11-21T08:11:48;3.97;;;1.30;;
73675;SDS011;61975;48.660;10.164;2023-11-21T08:14:14;4.30;;;1.07;;
73675;SDS011;61975;48.660;10.164;2023-11-21T08:16:40;3.17;;;1.10;;
73675;SDS011;61975;48.660;10.164;2023-11-21T08:19:05;5.70;;;1.20;;
73675;SDS011;61975;48.660;10.164;2023-11-21T08:21:31;4.32;;;1.13;;
73675;SDS011;61975;48.660;10.164;2023-11-21T08:23:56;5.00;;;1.33;;
73675;SDS011;61975;48.660;10.164;2023-11-21T08:26:22;5.90;;;1.20;;
73675;SDS011;61975;48.660;10.164;2023-11-21T08:28:47;3.92;;;0.93;;
73675;SDS011;61975;48.660;10.164;2023-11-21T08:31:13;4.25;;;1.08;;
73675;SDS011;61975;48.660;10.164;2023-11-21T08:33:38;2.90;;;0.90;;
73675;SDS011;61975;48.660;10.164;2023-11-21T08:36:10;3.70;;;1.30;;
73675;SDS011;61975;48.660;10.164;2023-11-21T08:38:36;4.13;;;1.23;;
73675;SDS011;61975;48.660;10.164;2023-11-21T08:41:04;4.40;;;1.00;;
73675;SDS011;61975;48.660;10.164;2023-11-21T08:43:32;3.55;;;0.90;;
73675;SDS011;61975;48.660;10.164;2023-11-21T08:45:59;4.55;;;1.70;;
73675;SDS011;61975;48.660;10.164;2023-11-21T08:48:24;6.07;;;1.50;;
73675;SDS011;61975;48.660;10.164;2023-11-21T08:50:50;9.00;;;3.33;;
73675;SDS011;61975;48.660;10.164;2023-11-21T08:53:16;5.97;;;2.22;;
73675;SDS011;61975;48.660;10.164;2023-11-21T08:55:41;4.87;;;1.60;;
73675;SDS011;61975;48.660;10.164;2023-11-21T08:58:09;7.38;;;2.13;;
73675;SDS011;61975;48.660;10.164;2023-11-21T09:00:34;4.47;;;1.60;;
73675;SDS011;61975;48.660;10.164;2023-11-21T09:03:00;4.75;;;1.58;;
73675;SDS011;61975;48.660;10.164;2023-11-21T09:05:27;9.63;;;3.45;;
73675;SDS011;61975;48.660;10.164;2023-11-21T09:07:52;7.33;;;2.77;;
73675;SDS011;61975;48.660;10.164;2023-11-21T09:10:18;8.05;;;2.40;;
73675;SDS011;61975;48.660;10.164;2023-11-21T09:12:44;19.83;;;7.93;;
73675;SDS011;61975;48.660;10.164;2023-11-21T09:15:09;15.13;;;5.95;;
73675;SDS011;61975;48.660;10.164;2023-11-21T09:17:36;6.30;;;2.10;;
73675;SDS011;61975;48.660;10.164;2023-11-21T09:20:01;3.75;;;1.67;;
73675;SDS011;61975;48.660;10.164;2023-11-21T09:22:30;6.87;;;2.10;;
73675;SDS011;61975;48.660;10.164;2023-11-21T09:24:56;7.38;;;2.00;;
73675;SDS011;61975;48.660;10.164;2023-11-21T09:27:22;4.20;;;1.50;;
73675;SDS011;61975;48.660;10.164;2023-11-21T09:29:48;3.10;;;1.30;;
73675;SDS011;61975;48.660;10.164;2023-11-21T09:32:14;3.45;;;1.17;;
73675;SDS011;61975;48.660;10.164;2023-11-21T09:34:41;3.10;;;1.27;;
73675;SDS011;61975;48.660;10.164;2023-11-21T09:37:06;2.60;;;1.00;;
73675;SDS011;61975;48.660;10.164;2023-11-21T09:39:33;2.40;;;0.70;;
73675;SDS011;61975;48.660;10.164;2023-11-21T09:42:03;2.40;;;0.60;;
73675;SDS011;61975;48.660;10.164;2023-11-21T09:44:43;2.80;;;0.77;;
73675;SDS011;61975;48.660;10.164;2023-11-21T09:47:14;4.80;;;0.90;;
73675;SDS011;61975;48.660;10.164;2023-11-21T09:49:41;3.63;;;0.80;;
73675;SDS011;61975;48.660;10.164;2023-11-21T09:52:32;2.47;;;0.80;;
73675;SDS011;61975;48.660;10.164;2023-11-21T09:55:05;3.90;;;1.70;;
73675;SDS011;61975;48.660;10.164;2023-11-21T09:57:31;4.25;;;1.63;;
73675;SDS011;61975;48.660;10.164;2023-11-21T09:59:58;3.60;;;1.40;;
73675;SDS011;61975;48.660;10.164;2023-11-21T10:02:29;3.70;;;1.30;;
73675;SDS011;61975;48.660;10.164;2023-11-21T10:04:55;3.07;;;1.20;;
73675;SDS011;61975;48.660;10.164;2023-11-21T10:07:21;2.63;;;1.00;;
73675;SDS011;61975;48.660;10.164;2023-11-21T10:09:47;3.40;;;1.17;;
73675;SDS011;61975;48.660;10.164;2023-11-21T10:12:16;2.30;;;0.70;;
73675;SDS011;61975;48.660;10.164;2023-11-21T10:14:43;4.07;;;1.20;;
73675;SDS011;61975;48.660;10.164;2023-11-21T10:17:12;2.72;;;0.90;;
73675;SDS011;61975;48.660;10.164;2023-11-21T10:19:41;2.10;;;0.60;;
73675;SDS011;61975;48.660;10.164;2023-11-21T10:22:07;2.90;;;0.70;;
73675;SDS011;61975;48.660;10.164;2023-11-21T10:24:33;2.45;;;0.73;;
73675;SDS011;61975;48.660;10.164;2023-11-21T10:26:59;2.27;;;0.70;;
73675;SDS011;61975;48.660;10.164;2023-11-21T10:29:28;3.97;;;1.65;;
73675;SDS011;61975;48.660;10.164;2023-11-21T10:31:55;2.75;;;0.90;;
73675;SDS011;61975;48.660;10.164;2023-11-21T10:34:22;2.90;;;0.97;;
73675;SDS011;61975;48.660;10.164;2023-11-21T10:36:48;2.88;;;0.93;;
73675;SDS011;61975;48.660;10.164;2023-11-21T10:39:17;3.27;;;1.30;;
73675;SDS011;61975;48.660;10.164;2023-11-21T10:41:44;3.20;;;0.88;;
73675;SDS011;61975;48.660;10.164;2023-11-21T10:44:13;2.50;;;0.70;;
73675;SDS011;61975;48.660;10.164;2023-11-21T10:46:45;3.17;;;0.90;;
73675;SDS011;61975;48.660;10.164;2023-11-21T10:49:19;2.72;;;0.50;;
73675;SDS011;61975;48.660;10.164;2023-11-21T10:51:45;2.58;;;0.60;;
73675;SDS011;61975;48.660;10.164;2023-11-21T10:54:13;1.95;;;0.60;;
73675;SDS011;61975;48.660;10.164;2023-11-21T10:56:42;4.43;;;0.57;;
73675;SDS011;61975;48.660;10.164;2023-11-21T10:59:12;4.03;;;1.17;;
73675;SDS011;61975;48.660;10.164;2023-11-21T11:01:40;3.00;;;0.90;;
73675;SDS011;61975;48.660;10.164;2023-11-21T11:04:09;3.20;;;0.70;;
73675;SDS011;61975;48.660;10.164;2023-11-21T11:06:51;2.40;;;0.80;;
73675;SDS011;61975;48.660;10.164;2023-11-21T11:09:20;2.50;;;0.80;;
73675;SDS011;61975;48.660;10.164;2023-11-21T11:11:46;2.40;;;0.70;;
73675;SDS011;61975;48.660;10.164;2023-11-21T11:14:12;3.10;;;1.00;;
73675;SDS011;61975;48.660;10.164;2023-11-21T11:16:38;2.25;;;0.80;;
73675;SDS011;61975;48.660;10.164;2023-11-21T11:19:08;2.45;;;0.65;;
73675;SDS011;61975;48.660;10.164;2023-11-21T11:24:24;2.92;;;0.80;;
73675;SDS011;61975;48.660;10.164;2023-11-21T11:29:35;2.97;;;0.95;;
73675;SDS011;61975;48.660;10.164;2023-11-21T11:34:44;3.17;;;1.00;;
73675;SDS011;61975;48.660;10.164;2023-11-21T11:37:15;2.22;;;0.70;;
73675;SDS011;61975;48.660;10.164;2023-11-21T11:39:42;2.67;;;0.70;;
73675;SDS011;61975;48.660;10.164;2023-11-21T11:42:10;2.50;;;0.70;;
73675;SDS011;61975;48.660;10.164;2023-11-21T11:50:08;2.30;;;0.70;;
73675;SDS011;61975;48.660;10.164;2023-11-21T11:55:14;2.75;;;0.80;;
73675;SDS011;61975;48.660;10.164;2023-11-21T11:57:44;2.40;;;0.80;;
73675;SDS011;61975;48.660;10.164;2023-11-21T12:02:59;2.30;;;0.70;;
73675;SDS011;61975;48.660;10.164;2023-11-21T12:05:29;2.30;;;0.70;;
73675;SDS011;61975;48.660;10.164;2023-11-21T12:07:58;3.58;;;0.70;;
73675;SDS011;61975;48.660;10.164;2023-11-21T12:10:35;4.13;;;1.20;;
73675;SDS011;61975;48.660;10.164;2023-11-21T12:13:11;3.45;;;0.90;;
73675;SDS011;61975;48.660;10.164;2023-11-21T12:15:39;2.40;;;0.70;;
73675;SDS011;61975;48.660;10.164;2023-11-21T12:18:06;2.42;;;0.65;;
73675;SDS011;61975;48.660;10.164;2023-11-21T12:20:32;3.75;;;0.80;;
73675;SDS011;61975;48.660;10.164;2023-11-21T12:23:03;3.35;;;0.70;;
73675;SDS011;61975;48.660;10.164;2023-11-21T12:25:30;3.03;;;0.77;;
73675;SDS011;61975;48.660;10.164;2023-11-21T12:28:01;5.83;;;0.90;;
73675;SDS011;61975;48.660;10.164;2023-11-21T12:30:31;2.88;;;0.80;;
73675;SDS011;61975;48.660;10.164;2023-11-21T12:33:00;3.08;;;0.85;;
73675;SDS011;61975;48.660;10.164;2023-11-21T12:35:28;2.50;;;0.70;;
73675;SDS011;61975;48.660;10.164;2023-11-21T12:37:56;2.65;;;0.60;;
73675;SDS011;61975;48.660;10.164;2023-11-21T12:40:24;2.13;;;0.60;;
73675;SDS011;61975;48.660;10.164;2023-11-21T12:42:55;2.60;;;0.60;;
73675;SDS011;61975;48.660;10.164;2023-11-21T12:45:24;5.03;;;0.80;;
73675;SDS011;61975;48.660;10.164;2023-11-21T12:47:51;2.65;;;0.80;;
73675;SDS011;61975;48.660;10.164;2023-11-21T12:50:22;2.58;;;0.90;;
73675;SDS011;61975;48.660;10.164;2023-11-21T12:52:49;7.90;;;2.40;;
73675;SDS011;61975;48.660;10.164;2023-11-21T12:55:25;3.78;;;1.20;;
73675;SDS011;61975;48.660;10.164;2023-11-21T12:57:53;11.95;;;3.38;;
73675;SDS011;61975;48.660;10.164;2023-11-21T13:00:27;4.53;;;1.45;;
73675;SDS011;61975;48.660;10.164;2023-11-21T13:02:57;3.47;;;1.20;;
73675;SDS011;61975;48.660;10.164;2023-11-21T13:05:24;3.40;;;1.00;;
73675;SDS011;61975;48.660;10.164;2023-11-21T13:07:53;4.15;;;1.67;;
73675;SDS011;61975;48.660;10.164;2023-11-21T13:10:21;3.03;;;1.10;;
73675;SDS011;61975;48.660;10.164;2023-11-21T13:12:50;2.42;;;0.70;;
73675;SDS011;61975;48.660;10.164;2023-11-21T13:15:17;3.33;;;1.13;;
73675;SDS011;61975;48.660;10.164;2023-11-21T13:17:45;2.43;;;0.90;;
73675;SDS011;61975;48.660;10.164;2023-11-21T13:20:11;6.97;;;1.77;;
73675;SDS011;61975;48.660;10.164;2023-11-21T13:22:46;3.50;;;1.40;;
73675;SDS011;61975;48.660;10.164;2023-11-21T13:25:13;5.30;;;2.38;;
73675;SDS011;61975;48.660;10.164;2023-11-21T13:27:40;4.93;;;1.33;;
73675;SDS011;61975;48.660;10.164;2023-11-21T13:30:08;2.72;;;0.70;;
73675;SDS011;61975;48.660;10.164;2023-11-21T13:32:33;2.33;;;0.70;;
73675;SDS011;61975;48.660;10.164;2023-11-21T13:34:59;2.53;;;0.73;;
73675;SDS011;61975;48.660;10.164;2023-11-21T13:37:25;4.40;;;1.27;;
73675;SDS011;61975;48.660;10.164;2023-11-21T13:39:53;4.32;;;1.38;;
73675;SDS011;61975;48.660;10.164;2023-11-21T13:42:19;4.45;;;1.15;;
73675;SDS011;61975;48.660;10.164;2023-11-21T13:44:47;4.68;;;1.40;;
73675;SDS011;61975;48.660;10.164;2023-11-21T13:47:14;6.30;;;1.77;;
73675;SDS011;61975;48.660;10.164;2023-11-21T13:49:39;2.70;;;0.90;;
73675;SDS011;61975;48.660;10.164;2023-11-21T13:52:07;8.18;;;2.50;;
73675;SDS011;61975;48.660;10.164;2023-11-21T13:54:32;9.33;;;2.90;;
73675;SDS011;61975;48.660;10.164;2023-11-21T13:56:58;6.97;;;2.28;;
73675;SDS011;61975;48.660;10.164;2023-11-21T13:59:25;4.17;;;1.13;;
73675;SDS011;61975;48.660;10.164;2023-11-21T14:01:53;3.70;;;1.30;;
73675;SDS011;61975;48.660;10.164;2023-11-21T14:04:25;3.53;;;1.42;;
73675;SDS011;61975;48.660;10.164;2023-11-21T14:07:00;2.95;;;0.82;;
73675;SDS011;61975;48.660;10.164;2023-11-21T14:09:35;2.45;;;0.80;;
73675;SDS011;61975;48.660;10.164;2023-11-21T14:12:08;2.40;;;0.80;;
73675;SDS011;61975;48.660;10.164;2023-11-21T14:14:37;2.33;;;0.70;;
73675;SDS011;61975;48.660;10.164;2023-11-21T14:17:04;2.00;;;0.60;;
73675;SDS011;61975;48.660;10.164;2023-11-21T14:19:32;1.60;;;0.40;;
73675;SDS011;61975;48.660;10.164;2023-11-21T14:21:58;1.48;;;0.30;;
73675;SDS011;61975;48.660;10.164;2023-11-21T14:24:24;1.10;;;0.27;;
73675;SDS011;61975;48.660;10.164;2023-11-21T14:26:50;1.63;;;0.40;;
73675;SDS011;61975;48.660;10.164;2023-11-21T14:29:16;2.20;;;0.50;;
73675;SDS011;61975;48.660;10.164;2023-11-21T14:31:45;2.58;;;0.47;;
73675;SDS011;61975;48.660;10.164;2023-11-21T14:34:14;1.90;;;0.40;;
73675;SDS011;61975;48.660;10.164;2023-11-21T14:36:40;1.60;;;0.40;;
73675;SDS011;61975;48.660;10.164;2023-11-21T14:39:05;1.63;;;0.30;;
73675;SDS011;61975;48.660;10.164;2023-11-21T14:41:34;2.67;;;0.60;;
73675;SDS011;61975;48.660;10.164;2023-11-21T14:44:02;2.00;;;0.50;;
73675;SDS011;61975;48.660;10.164;2023-11-21T14:46:36;2.20;;;0.80;;
73675;SDS011;61975;48.660;10.164;2023-11-21T14:49:04;2.88;;;0.50;;
73675;SDS011;61975;48.660;10.164;2023-11-21T14:51:48;2.92;;;1.10;;